TOURFACTS.DK  
Stats and Facts from Tour de France.

Tour de France 2019 starts in 321 days
  Riders   Stages   Teams   Summits   Yearly  


 
Search by year

After 2018 - Stage 21:
 15000 starters.
  5165 different riders.
  638 teams.
  2253 stages.
  456 restdays.
  442940.60 km.
  5684 abandonnees.


Top 3
GC
Geraint Thomas83:17:13
Tom Dumoulin83:19:04
Christopher Froome83:19:37
Climb
Julian Alaphilippe170 pt.
Warren Barguil91 pt.
Rafal Majka76 pt.
Sprint
Peter Sagan477 pt.
Alexander Kristoff246 pt.
Arnaud Démare203 pt.
Youth
Pierre-Roger Latou..83:39:26
Egan Bernal83:45:05
Guillaume Martin84:01:31
Facts from Tour de France 2015
  |   Stages.  |   Stage winners.  |   Days in yellow  |   Average speed.  |   Route.  |   Teams.  |   All riders.  |   Rookies.  |  

  |   Withdrawls.  |   GC.  |   Polka  |   Green  |   White  |   Summits. (In tour)  |   Miscellaneous.  |  

Stage 5 on 08 - 07 - 2015
         Owning:    Tony Martin      Joaquim Rodriguez      André Greipel      Peter Sagan  

Pick a stage:  1 2 3 4 5 6 7 8 9 10 11 12 13 14 15 16 17 18 19 20 21
  ArrasAmiens Métropole | Dist: 189.50 km.

Average speed for all riders in stage:  39,875 km./hr.
    Place:Name:Team:Time:Km/h:
1
GERAndré GreipelBELLotto Soudal04:39:00  +  00:00:00=40,753 
2
SVKPeter SaganRUSTinkoff Saxo04:39:00  +  00:00:00=40,753 
3
IOMMark CavendishBELEtixx - Quick Step04:39:00  +  00:00:00=40,753 
44 NORAlexander KristoffRUSTeam Katusha04:39:00  +  00:00:00=40,753 
55 NOREdvald Boasson HagenZAFMTN - Qhubeka P/B Samsung04:39:00  +  00:00:00=40,753 
66 GERJohn DegenkolbDEUTeam Giant Alpecin04:39:00  +  00:00:00=40,753 
77 FRAArnaud DémareFRAFDJ04:39:00  +  00:00:00=40,753 
88 FRABryan CoquardFRATeam Europcar04:39:00  +  00:00:00=40,753 
99 ITADavide CimolaiITALampre-Merida04:39:00  +  00:00:00=40,753 
1010 BELGreg Van AvermaetUSABMC Racing Team04:39:00  +  00:00:00=40,753 
1111 FRAGeoffrey SoupeFRACofidis – Solutions Crédits04:39:00  +  00:00:00=40,753 
1212 AUSZakkari DempsterDEUBora-Argon 1804:39:00  +  00:00:00=40,753 
1313 RSAReinardt Janse Van RensburgZAFMTN - Qhubeka P/B Samsung04:39:00  +  00:00:00=40,753 
1414 COLJarlinson Pantano GomezCHEIAM Cycling04:39:00  +  00:00:00=40,753 
1515 BELSep VanmarckeNLDTeam Lotto NL - Jumbo04:39:00  +  00:00:00=40,753 
1616 BELJan BakelantsFRAAg2r La Mondiale04:39:00  +  00:00:00=40,753 
1717 URSTanel KangertKAZAstana Pro Team04:39:00  +  00:00:00=40,753 
1818 AUTMatthias BrändleCHEIAM Cycling04:39:00  +  00:00:00=40,753 
1919 ITAVincenzo NibaliKAZAstana Pro Team04:39:00  +  00:00:00=40,753 
2020 ITAMichele ScarponiKAZAstana Pro Team04:39:00  +  00:00:00=40,753 
2121 FRASylvain ChavanelCHEIAM Cycling04:39:00  +  00:00:00=40,753 
2222 GERTony MartinBELEtixx - Quick Step04:39:00  +  00:00:00=40,753 
2323 GERPaul VossDEUBora-Argon 1804:39:00  +  00:00:00=40,753 
2424 WALGeraint ThomasGBRSky Procycling04:39:00  +  00:00:00=40,753 
2525 FRAWarren BarguilDEUTeam Giant Alpecin04:39:00  +  00:00:00=40,753 
2626 SLOKristjan KorenUSATeam Cannondale - Garmin04:39:00  +  00:00:00=40,753 
2727 ESPAlejandro ValverdeESPMovistar Team04:39:00  +  00:00:00=40,753 
2828 KENChristopher FroomeGBRSky Procycling04:39:00  +  00:00:00=40,753 
2929 NEDRobert GesinkNLDTeam Lotto NL - Jumbo04:39:00  +  00:00:00=40,753 
3030 SUIMichael SchärUSABMC Racing Team04:39:00  +  00:00:00=40,753 
3131 ESPSamuel SanchezUSABMC Racing Team04:39:00  +  00:00:00=40,753 
3232 USATejay Van GarderenUSABMC Racing Team04:39:00  +  00:00:00=40,753 
3333 ARGEduardo SepulvedaFRABretagne - Séché Environnement04:39:00  +  00:00:00=40,753 
3434 COLNairo QuintanaESPMovistar Team04:39:00  +  00:00:00=40,753 
3535 FRATony GallopinBELLotto Soudal04:39:00  +  00:00:00=40,753 
3636 PORRui CostaITALampre-Merida04:39:00  +  00:00:00=40,753 
3737 USAAndrew TalanskyUSATeam Cannondale - Garmin04:39:00  +  00:00:00=40,753 
3838 AUSMark RenshawBELEtixx - Quick Step04:39:00  +  00:00:00=40,753 
3939 FRARomain BardetFRAAg2r La Mondiale04:39:00  +  00:00:00=40,753 
4040 ESPAlberto ContadorRUSTinkoff Saxo04:39:00  +  00:00:00=40,753 
4141 FRAMickaël CherelFRAAg2r La Mondiale04:39:00  +  00:00:00=40,753 
4242 FRAJean-Christophe PeraudFRAAg2r La Mondiale04:39:00  +  00:00:00=40,753 
4343 ESPJoaquim RodriguezRUSTeam Katusha04:39:00  +  00:00:00=40,753 
4444 CZERoman KreuzigerRUSTinkoff Saxo04:39:00  +  00:00:00=40,753 
4545 GERDominik NerzDEUBora-Argon 1804:39:00  +  00:00:00=40,753 
4646 ERIDaniel TeklehaimanotZAFMTN - Qhubeka P/B Samsung04:39:00  +  00:00:00=40,753 
4747 ESPMarkel IrizarUSATrek Factory Racing04:39:00  +  00:00:00=40,753 
4848 COLRigoberto UránBELEtixx - Quick Step04:39:00  +  00:00:00=40,753 
4949 SUIJakob FuglsangKAZAstana Pro Team04:39:00  +  00:00:00=40,753 
5050 ESPAlberto LosadaRUSTeam Katusha04:39:00  +  00:00:00=40,753 
5151 SUIMathias FrankCHEIAM Cycling04:39:00  +  00:00:00=40,753 
5252 NEDBauke MollemaUSATrek Factory Racing04:39:00  +  00:00:00=40,753 
5353 RSAJacques Janse Van RensburgZAFMTN - Qhubeka P/B Samsung04:39:00  +  00:00:00=40,753 
5454 FRAChristophe LaporteFRACofidis – Solutions Crédits04:39:00  +  00:00:00=40,753 
5555 SUIGregory RastUSATrek Factory Racing04:39:00  +  00:00:00=40,753 
5656 CZEZdenek StybarBELEtixx - Quick Step04:39:00  +  00:00:00=40,753 
5757 FRAThibaut PinotFRAFDJ04:39:00  +  00:00:00=40,753 
5858 FRACyril GautierFRATeam Europcar04:39:00  +  00:00:00=40,753 
5959 FRAAlexis VuillermozFRAAg2r La Mondiale04:39:00  +  00:00:00=40,753 
6060 ENGDaniel MartinUSATeam Cannondale - Garmin04:39:00  +  00:00:00=40,753 
6161 FRABenoit VaugrenardFRAFDJ04:39:00  +  00:00:00=40,753 
6262 NEDJos Van EmdenNLDTeam Lotto NL - Jumbo04:39:00  +  00:00:00=40,753 
6363 DENLars BakBELLotto Soudal04:39:00  +  00:00:00=40,753 
6464 FRAPierre RollandFRATeam Europcar04:39:00  +  00:00:00=40,753 
6565 FRAMatthieu LadagnousFRAFDJ04:39:00  +  00:00:00=40,753 
6666 UKRAndriy GrivkoKAZAstana Pro Team04:39:10  +  00:00:10=40,728 
6767 NEDKoen De KortDEUTeam Giant Alpecin04:39:12  +  00:00:12=40,723 
6868 NEDBram TankinkNLDTeam Lotto NL - Jumbo04:39:12  +  00:00:12=40,723 
6969 ESPJonathan CastroviejoESPMovistar Team04:39:12  +  00:00:12=40,723 
7070 LUXLaurent DidierUSATrek Factory Racing04:39:12  +  00:00:12=40,723 
7171 ESPGorka Izaguirre InsaustiESPMovistar Team04:39:12  +  00:00:12=40,723 
7272 FRADamien GaudinFRAAg2r La Mondiale04:39:12  +  00:00:12=40,723 
7373 FRAYohann GèneFRATeam Europcar04:39:12  +  00:00:12=40,723 
7474 FRAChristophe RiblonFRAAg2r La Mondiale04:39:12  +  00:00:12=40,723 
7575 DENMichael ValgrenRUSTinkoff Saxo04:39:12  +  00:00:12=40,723 
7676 BELTim WellensBELLotto Soudal04:39:12  +  00:00:12=40,723 
7777 ENGAdam YatesAUSOrica - GreenEDGE04:39:12  +  00:00:12=40,723 
7878 FRARomain SicardFRATeam Europcar04:39:12  +  00:00:12=40,723 
7979 NEDTom LeezerNLDTeam Lotto NL - Jumbo04:39:12  +  00:00:12=40,723 
8080 AUSNathan HaasUSATeam Cannondale - Garmin04:39:17  +  00:00:17=40,711 
8181 GERMarcel SiebergBELLotto Soudal04:39:18  +  00:00:18=40,709 
8282 URSRein TaaramäeKAZAstana Pro Team04:39:20  +  00:00:20=40,704 
8383 NEDRoy CurversDEUTeam Giant Alpecin04:39:23  +  00:00:23=40,697 
8484 ITADaniel OssUSABMC Racing Team04:39:23  +  00:00:23=40,697 
8585 FRAFlorian SénéchalFRACofidis – Solutions Crédits04:39:23  +  00:00:23=40,697 
8686 ITAAdriano MaloriESPMovistar Team04:39:43  +  00:00:43=40,648 
8787 ITADaniele BennatiRUSTinkoff Saxo04:39:43  +  00:00:43=40,648 
8888 SUISteve MorabitoFRAFDJ04:39:00  +  00:00:00=40,753 
8989 ENGIan StannardGBRSky Procycling04:39:43  +  00:00:43=40,648 
9090 POLMichal GolasBELEtixx - Quick Step04:39:43  +  00:00:43=40,648 
9191 NEDLieuwe WestraKAZAstana Pro Team04:39:43  +  00:00:43=40,648 
9292 NEDRamon SinkeldamDEUTeam Giant Alpecin04:39:56  +  00:00:56=40,617 
9393 ENGSimon YatesAUSOrica - GreenEDGE04:39:56  +  00:00:56=40,617 
9494 URSRamunas NavardauskasUSATeam Cannondale - Garmin04:40:05  +  00:01:05=40,595 
9595 ITADamiano CarusoUSABMC Racing Team04:40:18  +  00:01:18=40,564 
9696 FRANicolas RocheGBRSky Procycling04:40:18  +  00:01:18=40,564 
9797 AUSMichael RogersRUSTinkoff Saxo04:40:18  +  00:01:18=40,564 
9898 SUIDanilo WyssUSABMC Racing Team04:40:18  +  00:01:18=40,564 
9999 USATyler FarrarZAFMTN - Qhubeka P/B Samsung04:40:24  +  00:01:24=40,549 
100100 ITAManuel QuinziatoUSABMC Racing Team04:40:24  +  00:01:24=40,549 
101101 NEDDylan Van BaarleUSATeam Cannondale - Garmin04:41:17  +  00:02:17=40,422 
102102 WALLuke RoweGBRSky Procycling04:41:28  +  00:02:28=40,396 
103103 GERSimon GeschkeDEUTeam Giant Alpecin04:41:28  +  00:02:28=40,396 
104104 NEDAlbert TimmerDEUTeam Giant Alpecin04:41:28  +  00:02:28=40,396 
105105 POLMichal KwiatkowskiBELEtixx - Quick Step04:41:46  +  00:02:46=40,353 
106106 BELJulien VermoteBELEtixx - Quick Step04:41:46  +  00:02:46=40,353 
107107 AUSRohan DennisUSABMC Racing Team04:42:07  +  00:03:07=40,302 
108108 ITAMatteo TrentinBELEtixx - Quick Step04:42:07  +  00:03:07=40,302 
109109 FRAArmindo FonsecaFRABretagne - Séché Environnement04:47:29  +  00:08:29=39,550 
110110 ITAFilippo PozzatoITALampre-Merida04:49:14  +  00:10:14=39,311 
111111 FRASébastien ChavanelFRAFDJ04:49:15  +  00:10:15=39,309 
112112 CZELeopold KönigGBRSky Procycling04:49:20  +  00:10:20=39,297 
113113 NEDSteven KruijswijkNLDTeam Lotto NL - Jumbo04:51:23  +  00:12:23=39,021 
114114 AUTMarco HallerRUSTeam Katusha04:51:23  +  00:12:23=39,021 
115115 AUTGeorg PreidlerDEUTeam Giant Alpecin04:51:23  +  00:12:23=39,021 
116116 NEDWout PoelsGBRSky Procycling04:51:23  +  00:12:23=39,021 
117117 PORTiago PintoRUSTeam Katusha04:51:23  +  00:12:23=39,021 
118118 ITAIvan BassoRUSTinkoff Saxo04:51:23  +  00:12:23=39,021 
119119 ITAJacopo GuarnieriRUSTeam Katusha04:51:23  +  00:12:23=39,021 
120120 ITALuca PaoliniRUSTeam Katusha04:51:23  +  00:12:23=39,021 
121121 ITAMatteo TosattoRUSTinkoff Saxo04:51:23  +  00:12:23=39,021 
122122 FRABrice FeilluFRABretagne - Séché Environnement04:53:15  +  00:14:15=38,772 
123123 BELThomas De GendtBELLotto Soudal04:53:15  +  00:14:15=38,772 
124124 FRAAnthony DelaplaceFRABretagne - Séché Environnement04:53:15  +  00:14:15=38,772 
125125 NEDStef ClementCHEIAM Cycling04:53:15  +  00:14:15=38,772 
126126 FRAPierre-Luc PérichonFRABretagne - Séché Environnement04:53:15  +  00:14:15=38,772 
127127 PORNelson OliveiraITALampre-Merida04:53:15  +  00:14:15=38,772 
128128 BELSerge PauwelsZAFMTN - Qhubeka P/B Samsung04:53:15  +  00:14:15=38,772 
129129 NEDWilco KeldermanNLDTeam Lotto NL - Jumbo04:53:15  +  00:14:15=38,772 
130130 LUXBen GastauerFRAAg2r La Mondiale04:53:15  +  00:14:15=38,772 
131131 FRAAlexandre GeniezFRAFDJ04:53:15  +  00:14:15=38,772 
132132 BELStijn DevolderUSATrek Factory Racing04:53:15  +  00:14:15=38,772 
133133 BELJens DebusschereBELLotto Soudal04:53:15  +  00:14:15=38,772 
134134 ESPHaimar ZubeldiaUSATrek Factory Racing04:53:15  +  00:14:15=38,772 
135135 NZLGregory HendersonBELLotto Soudal04:53:15  +  00:14:15=38,772 
136136 KAZDmitriy GruzdevKAZAstana Pro Team04:53:15  +  00:14:15=38,772 
137137 ESPLuis Angel MateFRACofidis – Solutions Crédits04:53:15  +  00:14:15=38,772 
138138 AUSAdam HansenBELLotto Soudal04:53:15  +  00:14:15=38,772 
139139 AUSRichie PorteGBRSky Procycling04:53:15  +  00:14:15=38,772 
140140 COLJulián ArredondoUSATrek Factory Racing04:53:15  +  00:14:15=38,772 
141141 IOMPeter KennaughGBRSky Procycling04:53:15  +  00:14:15=38,772 
142142 GERPaul MartensNLDTeam Lotto NL - Jumbo04:53:15  +  00:14:15=38,772 
143143 LUXBob JungelsUSATrek Factory Racing04:53:15  +  00:14:15=38,772 
144144 FRAPerrig QuemeneurFRATeam Europcar04:53:15  +  00:14:15=38,772 
145145 CZEJan BártaDEUBora-Argon 1804:53:15  +  00:14:15=38,772 
146146 FRABryan NauleauFRATeam Europcar04:53:15  +  00:14:15=38,772 
147147 FRAThomas VoecklerFRATeam Europcar04:53:15  +  00:14:15=38,772 
148148 FRAPierrick FédrigoFRABretagne - Séché Environnement04:53:15  +  00:14:15=38,772 
149149 GEREmanuel BuchmannDEUBora-Argon 1804:53:15  +  00:14:15=38,772 
150150 BELSam BennettDEUBora-Argon 1804:53:15  +  00:14:15=38,772 
151151 ESPImanol ErvitiESPMovistar Team04:53:15  +  00:14:15=38,772 
152152 ITAGiampaolo CarusoRUSTeam Katusha04:53:15  +  00:14:15=38,772 
153153 SUIMarcel WyssCHEIAM Cycling04:53:15  +  00:14:15=38,772 
154154 SUIMartin ElmigerCHEIAM Cycling04:53:15  +  00:14:15=38,772 
155155 SUIReto HollensteinCHEIAM Cycling04:53:15  +  00:14:15=38,772 
156156 HRVKristijan DurasekITALampre-Merida04:53:15  +  00:14:15=38,772 
157157 POLBartosz HuzarskiDEUBora-Argon 1804:53:15  +  00:14:15=38,772 
158158 ESPDaniel NavarroFRACofidis – Solutions Crédits04:53:15  +  00:14:15=38,772 
159159 NEDLars BoomKAZAstana Pro Team04:53:15  +  00:14:15=38,772 
160160 FRAJérémy RoyFRAFDJ04:53:15  +  00:14:15=38,772 
161161 RSALouis MeintjesZAFMTN - Qhubeka P/B Samsung04:53:15  +  00:14:15=38,772 
162162 BELJohan VansummerenFRAAg2r La Mondiale04:53:15  +  00:14:15=38,772 
163163 FRANicolas EdetFRACofidis – Solutions Crédits04:53:15  +  00:14:15=38,772 
164164 BELKenneth VanbilsenFRACofidis – Solutions Crédits04:53:15  +  00:14:15=38,772 
165165 POLRafal MajkaRUSTinkoff Saxo04:53:15  +  00:14:15=38,772 
166166 AUSLuke DurbridgeAUSOrica - GreenEDGE04:53:15  +  00:14:15=38,772 
167167 FRAArnaud GérardFRABretagne - Séché Environnement04:53:15  +  00:14:15=38,772 
168168 NEDPieter WeeningAUSOrica - GreenEDGE04:53:15  +  00:14:15=38,772 
169169 SUIMichael AlbasiniAUSOrica - GreenEDGE04:53:15  +  00:14:15=38,772 
170170 FRAJulien SimonFRACofidis – Solutions Crédits04:53:15  +  00:14:15=38,772 
171171 CANSvein TuftAUSOrica - GreenEDGE04:53:15  +  00:14:15=38,772 
172172 ESPRafael Valls FerriITALampre-Merida04:53:15  +  00:14:15=38,772 
173173 ITAMatteo BonoITALampre-Merida04:53:15  +  00:14:15=38,772 
174174 COLWinner AnaconaESPMovistar Team04:53:15  +  00:14:15=38,772 
175175 ESPRubén PlazaITALampre-Merida04:53:15  +  00:14:15=38,772 
176176 AUSMichael MatthewsAUSOrica - GreenEDGE04:53:15  +  00:14:15=38,772 
177177 ESPJosé Herrada LópezESPMovistar Team04:53:15  +  00:14:15=38,772 
178178 COLJosé SerpaITALampre-Merida04:53:15  +  00:14:15=38,772 
179179 ERIMerhawi GhebremedhinZAFMTN - Qhubeka P/B Samsung04:53:15  +  00:14:15=38,772 
180180 PORJosé João PimentaDEUBora-Argon 1804:53:15  +  00:14:15=38,772 
181181 NEDLaurens ten DamNLDTeam Lotto NL - Jumbo04:53:15  +  00:14:15=38,772 
182182 FRAFrédéric BrunFRABretagne - Séché Environnement04:53:15  +  00:14:15=38,772 
183183 FRAJérôme CoppelCHEIAM Cycling04:53:15  +  00:14:15=38,772 
184184 FRAFlorian VachonFRABretagne - Séché Environnement04:53:15  +  00:14:15=38,772 
185185 FRAAngelo TulikFRATeam Europcar04:53:15  +  00:14:15=38,772 
186186 ENGStephen CummingsZAFMTN - Qhubeka P/B Samsung04:53:15  +  00:14:15=38,772 
187187 ENGAlex DowsettESPMovistar Team04:53:15  +  00:14:15=38,772 
188188 CANRyder HesjedalUSATeam Cannondale - Garmin04:53:15  +  00:14:15=38,772 
189189 NEDSebastian LangeveldUSATeam Cannondale - Garmin04:53:15  +  00:14:15=38,772 

Withdrawls: 2
 
Rider
Team
Reason
162  NZLJack BauerUSATeam Cannondale - GarminDid not finish
171  FRANacer BouhanniFRACofidis – Solutions CréditsDid not finish
Todays birthdays.

1878  Louis Gardent
1904  Ludwig Geyer
1911  Paul Egli
1916  Piet Van Nek
1926  Bruno Garonzi
1933  Roger Baens
1938  Roland Zöffel
1945  Marcello Osler
1946  Antonio Menendez
1962  Niki Rüttimann
1969  Serge Baguet
1970  Cédric Vasseur
1971  Cristian Salvato
1972  Sven Teutenberg
1988  Frédéric Brun